Time;durP1;ratioP1;P1;durP2;ratioP2;P2;SDS_P1;SDS_P2;PMS_P1;PMS_P2;Temp;Humidity;BMP_temperature;BMP_pressure;BME280_temperature;BME280_humidity;BME280_pressure;Samples;Min_cycle;Max_cycle;Signal;HPM_P1;HPM_P2
2023/03/22 00:01:55;;;;;;;12.10;6.50;;;;;;;-144.57;100.00;62443.72;4764408;30;20067;-61
2023/03/22 00:04:21;;;;;;;12.13;6.78;;;;;;;-144.57;100.00;62443.72;4750731;30;20088;-61
2023/03/22 00:06:47;;;;;;;14.70;6.47;;;;;;;-144.57;100.00;62443.72;4751024;30;20060;-62
2023/03/22 00:09:13;;;;;;;12.32;7.03;;;;;;;-144.57;100.00;62443.72;4748596;30;20063;-62
2023/03/22 00:11:38;;;;;;;9.80;6.25;;;;;;;-144.57;100.00;62443.72;4748598;30;20126;-63
2023/03/22 00:14:05;;;;;;;12.43;7.00;;;;;;;-144.57;100.00;62443.72;4750785;30;20060;-61
2023/03/22 00:16:30;;;;;;;11.45;5.97;;;;;;;-144.57;100.00;62443.72;4750716;30;20542;-62
2023/03/22 00:18:56;;;;;;;10.45;6.43;;;;;;;-144.57;100.00;62443.72;4763987;30;20072;-62
2023/03/22 00:21:22;;;;;;;14.73;6.43;;;;;;;-144.57;100.00;62443.72;4751190;30;20071;-62
2023/03/22 00:23:47;;;;;;;10.48;6.32;;;;;;;-144.57;100.00;62443.72;4750298;30;20071;-62
2023/03/22 00:26:14;;;;;;;12.02;6.68;;;;;;;-144.57;100.00;62443.72;4764044;30;20059;-63
2023/03/22 00:28:41;;;;;;;12.40;6.45;;;;;;;-144.57;100.00;62443.72;4749169;30;20072;-62
2023/03/22 00:31:07;;;;;;;11.30;6.70;;;;;;;-144.57;100.00;62443.72;4749274;30;20059;-62
2023/03/22 00:33:33;;;;;;;12.35;7.15;;;;;;;-144.57;100.00;62443.72;4750411;30;20067;-61
2023/03/22 00:36:04;;;;;;;12.93;6.65;;;;;;;-144.57;100.00;62443.72;4750689;30;20067;-62
2023/03/22 00:38:35;;;;;;;12.90;6.78;;;;;;;-144.57;100.00;62443.72;4750471;30;20060;-62
2023/03/22 00:41:05;;;;;;;13.27;6.97;;;;;;;-144.57;100.00;62443.72;4749226;30;20052;-62
2023/03/22 00:43:31;;;;;;;12.80;6.90;;;;;;;-144.57;100.00;62443.72;4755887;30;20060;-62
2023/03/22 00:45:56;;;;;;;13.65;7.72;;;;;;;-144.57;100.00;62443.72;4750416;30;20109;-63
2023/03/22 00:48:22;;;;;;;11.23;6.55;;;;;;;-144.57;100.00;62443.72;4734432;30;20067;-62
2023/03/22 00:50:48;;;;;;;12.77;6.38;;;;;;;-144.57;100.00;62443.72;4750742;30;20052;-63
2023/03/22 00:53:13;;;;;;;12.57;6.38;;;;;;;-144.57;100.00;62443.72;4763802;30;20541;-63
2023/03/22 00:55:39;;;;;;;13.02;6.65;;;;;;;-144.57;100.00;62443.72;4750279;30;20058;-62
2023/03/22 00:58:05;;;;;;;14.45;6.65;;;;;;;-144.57;100.00;62443.72;4748722;30;20515;-62
2023/03/22 01:00:32;;;;;;;12.32;6.82;;;;;;;-144.57;100.00;62443.72;4763282;30;20110;-60
2023/03/22 01:03:03;;;;;;;13.73;6.90;;;;;;;-144.57;100.00;62443.72;4763780;30;20939;-60
2023/03/22 01:05:32;;;;;;;11.63;6.32;;;;;;;-144.57;100.00;62443.72;4763354;30;20056;-60
2023/03/22 01:08:07;;;;;;;11.85;7.07;;;;;;;-144.57;100.00;62443.72;4763829;30;20095;-62
2023/03/22 01:10:36;;;;;;;10.05;5.85;;;;;;;-144.57;100.00;62443.72;4756629;30;20099;-62
2023/03/22 01:13:03;;;;;;;17.08;6.43;;;;;;;-144.57;100.00;62443.72;4745836;30;20072;-62
2023/03/22 01:15:29;;;;;;;10.38;6.28;;;;;;;-144.57;100.00;62443.72;4732506;30;20063;-63
2023/03/22 01:17:55;;;;;;;10.30;5.85;;;;;;;-144.57;100.00;62443.72;4732466;30;20056;-61
2023/03/22 01:20:21;;;;;;;13.88;6.65;;;;;;;-144.57;100.00;62443.72;4745832;30;20143;-61
2023/03/22 01:22:47;;;;;;;9.57;5.95;;;;;;;-144.57;100.00;62443.72;4738693;30;20048;-61
2023/03/22 01:25:12;;;;;;;13.30;6.05;;;;;;;-144.57;100.00;62443.72;4763470;30;20064;-61
2023/03/22 01:27:38;;;;;;;12.80;7.22;;;;;;;-144.57;100.00;62443.72;4748782;30;20159;-63
2023/03/22 01:30:06;;;;;;;10.95;6.47;;;;;;;-144.57;100.00;62443.72;4749667;30;20066;-60
2023/03/22 01:32:32;;;;;;;12.82;7.00;;;;;;;-144.57;100.00;62443.72;4748811;30;20430;-61
2023/03/22 01:34:57;;;;;;;11.88;6.65;;;;;;;-144.57;100.00;62443.72;4763635;30;20151;-61
2023/03/22 01:37:26;;;;;;;12.95;6.22;;;;;;;-144.57;100.00;62443.72;4763650;30;20585;-62
2023/03/22 01:39:55;;;;;;;12.35;6.68;;;;;;;-144.57;100.00;62443.72;4763480;30;20068;-62
2023/03/22 01:42:22;;;;;;;12.45;6.57;;;;;;;-144.57;100.00;62443.72;4763774;30;20060;-64
2023/03/22 01:45:15;;;;;;;11.57;6.85;;;;;;;-144.57;100.00;62443.72;4743882;30;20064;-61
2023/03/22 01:47:54;;;;;;;10.38;6.00;;;;;;;-144.57;100.00;62443.72;4734565;30;20092;-61
2023/03/22 01:50:21;;;;;;;10.95;5.90;;;;;;;-144.57;100.00;62443.72;4748992;30;20591;-61
2023/03/22 01:52:49;;;;;;;11.38;5.68;;;;;;;-144.57;100.00;62443.72;4749226;30;20107;-60
2023/03/22 01:55:28;;;;;;;9.57;5.47;;;;;;;-144.57;100.00;62443.72;4749546;30;20115;-60
2023/03/22 01:58:06;;;;;;;9.40;6.10;;;;;;;-144.57;100.00;62443.72;4748673;30;20061;-62
2023/03/22 02:00:41;;;;;;;9.68;6.10;;;;;;;-144.57;100.00;62443.72;4734369;30;20102;-62
2023/03/22 02:03:24;;;;;;;10.75;6.07;;;;;;;-144.57;100.00;62443.72;4749069;30;20549;-62
2023/03/22 02:05:50;;;;;;;11.65;7.00;;;;;;;-144.57;100.00;62443.72;4749108;30;20277;-61
2023/03/22 02:08:17;;;;;;;12.15;6.68;;;;;;;-144.57;100.00;62443.72;4734129;30;20056;-61
2023/03/22 02:11:03;;;;;;;14.50;7.43;;;;;;;-144.57;100.00;62443.72;4746072;30;20458;-60
2023/03/22 02:13:37;;;;;;;15.10;8.43;;;;;;;-144.57;100.00;62443.72;4748977;30;20658;-61
2023/03/22 02:16:44;;;;;;;14.00;7.53;;;;;;;-144.57;100.00;62443.72;4746853;30;20061;-61
2023/03/22 02:19:20;;;;;;;12.23;6.53;;;;;;;-144.57;100.00;62443.72;4748772;30;20065;-63
2023/03/22 02:22:20;;;;;;;10.48;6.47;;;;;;;-144.57;100.00;62443.72;4748374;30;20061;-62
2023/03/22 02:25:04;;;;;;;9.35;6.20;;;;;;;-144.57;100.00;62443.72;4748365;30;20064;-62
2023/03/22 02:27:34;;;;;;;11.18;6.20;;;;;;;-144.57;100.00;62443.72;4748758;30;20109;-61
2023/03/22 02:30:26;;;;;;;10.45;6.50;;;;;;;-144.57;100.00;62443.72;4748599;30;20065;-60
2023/03/22 02:33:13;;;;;;;9.80;6.40;;;;;;;-144.57;100.00;62443.72;4732371;30;20057;-62
2023/03/22 02:35:51;;;;;;;11.07;6.88;;;;;;;-144.57;100.00;62443.72;4763131;30;20091;-60
2023/03/22 02:38:35;;;;;;;11.50;7.43;;;;;;;-144.57;100.00;62443.72;4733664;30;20065;-62
2023/03/22 02:41:13;;;;;;;14.60;8.43;;;;;;;-144.57;100.00;62443.72;4762698;30;20053;-61
2023/03/22 02:44:16;;;;;;;12.48;7.72;;;;;;;-144.57;100.00;62443.72;4734952;30;20060;-61
2023/03/22 02:46:48;;;;;;;10.45;5.65;;;;;;;-144.57;100.00;62443.72;4718702;30;20095;-61
2023/03/22 02:49:19;;;;;;;10.27;6.00;;;;;;;-144.57;100.00;62443.72;4763230;30;20526;-62
2023/03/22 02:51:50;;;;;;;9.93;5.65;;;;;;;-144.57;100.00;62443.72;4762993;30;20155;-62
2023/03/22 02:54:21;;;;;;;8.32;4.85;;;;;;;-144.57;100.00;62443.72;4762748;30;20065;-61
2023/03/22 02:56:55;;;;;;;8.10;5.10;;;;;;;-144.57;100.00;62443.72;4761740;30;20202;-61
2023/03/22 02:59:22;;;;;;;16.25;9.23;;;;;;;-144.57;100.00;62443.72;4762828;30;20067;-62
2023/03/22 03:01:51;;;;;;;19.60;10.85;;;;;;;-144.57;100.00;62443.72;4762843;30;20060;-61
2023/03/22 03:04:27;;;;;;;11.25;6.68;;;;;;;-144.57;100.00;62443.72;4748021;30;20504;-61
2023/03/22 03:06:56;;;;;;;12.05;7.15;;;;;;;-144.57;100.00;62443.72;4762665;30;20056;-62
2023/03/22 03:09:22;;;;;;;8.98;6.03;;;;;;;-144.57;100.00;62443.72;4762676;30;20121;-62
2023/03/22 03:11:51;;;;;;;8.95;5.20;;;;;;;-144.57;100.00;62443.72;4765394;30;20048;-62
2023/03/22 03:14:26;;;;;;;7.70;3.65;;;;;;;-144.57;100.00;62443.72;4773264;30;20538;-61
2023/03/22 03:17:13;;;;;;;6.05;3.70;;;;;;;-144.57;100.00;62443.72;4783484;30;20084;-61
2023/03/22 03:19:47;;;;;;;4.45;3.08;;;;;;;-144.57;100.00;62443.72;4769915;30;20147;-61
2023/03/22 03:22:37;;;;;;;5.00;3.33;;;;;;;-144.57;100.00;62443.72;4769086;30;20433;-61
2023/03/22 03:25:17;;;;;;;6.60;3.47;;;;;;;-144.57;100.00;62443.72;4767076;30;20616;-61
2023/03/22 03:28:10;;;;;;;5.40;3.57;;;;;;;-144.57;100.00;62443.72;4766224;30;20055;-61
2023/03/22 03:30:48;;;;;;;5.40;3.67;;;;;;;-144.57;100.00;62443.72;4752573;30;20454;-61
2023/03/22 03:33:19;;;;;;;5.40;3.75;;;;;;;-144.57;100.00;62443.72;4780906;30;20063;-63
2023/03/22 03:36:08;;;;;;;3.92;3.33;;;;;;;-144.57;100.00;62443.72;4780971;30;20585;-61
2023/03/22 03:38:37;;;;;;;4.15;3.00;;;;;;;-144.57;100.00;62443.72;4782110;30;20063;-63
2023/03/22 03:41:07;;;;;;;2.92;2.60;;;;;;;-144.57;100.00;62443.72;4782832;30;20062;-61
2023/03/22 03:43:33;;;;;;;4.28;3.22;;;;;;;-144.57;100.00;62443.72;4782916;30;20060;-61
2023/03/22 03:45:59;;;;;;;4.15;3.28;;;;;;;-144.57;100.00;62443.72;4767820;30;20055;-62
2023/03/22 03:48:30;;;;;;;3.15;2.65;;;;;;;-144.57;100.00;62443.72;4769235;30;20067;-62
2023/03/22 03:50:56;;;;;;;2.88;2.28;;;;;;;-144.57;100.00;62443.72;4782681;30;20143;-61
2023/03/22 03:53:23;;;;;;;3.25;2.80;;;;;;;-144.57;100.00;62443.72;4753295;30;20055;-61
2023/03/22 03:55:48;;;;;;;3.03;2.55;;;;;;;-144.57;100.00;62443.72;4769494;30;20056;-60
2023/03/22 03:58:15;;;;;;;3.15;2.70;;;;;;;-144.57;100.00;62443.72;4782302;30;20063;-62
2023/03/22 04:00:43;;;;;;;2.92;2.60;;;;;;;-144.57;100.00;62443.72;4752380;30;20415;-60
2023/03/22 04:03:36;;;;;;;3.10;2.08;;;;;;;-144.57;100.00;62443.72;4782440;30;20059;-62
2023/03/22 04:06:08;;;;;;;3.15;2.40;;;;;;;-144.57;100.00;62443.72;4768614;30;20535;-59
2023/03/22 04:08:36;;;;;;;2.78;2.50;;;;;;;-144.57;100.00;62443.72;4781790;30;20071;-61
2023/03/22 04:11:03;;;;;;;2.70;2.50;;;;;;;-144.57;100.00;62443.72;4774421;30;20052;-62
2023/03/22 04:13:30;;;;;;;3.50;2.63;;;;;;;-144.57;100.00;62443.72;4763736;30;20146;-62
2023/03/22 04:16:01;;;;;;;2.83;2.40;;;;;;;-144.57;100.00;62443.72;4764517;30;20155;-62
2023/03/22 04:18:29;;;;;;;2.47;2.28;;;;;;;-144.57;100.00;62443.72;4764586;30;20125;-62
2023/03/22 04:20:56;;;;;;;2.88;2.58;;;;;;;-144.57;100.00;62443.72;4764511;30;20610;-61
2023/03/22 04:23:24;;;;;;;3.10;2.70;;;;;;;-144.57;100.00;62443.72;4764318;30;20155;-62
2023/03/22 04:25:50;;;;;;;4.05;2.88;;;;;;;-144.57;100.00;62443.72;4749920;30;20063;-61
2023/03/22 04:28:26;;;;;;;3.33;2.72;;;;;;;-144.57;100.00;62443.72;4764602;30;20076;-60
2023/03/22 04:30:53;;;;;;;4.85;3.00;;;;;;;-144.57;100.00;62443.72;4764371;30;20052;-62
2023/03/22 04:33:21;;;;;;;4.13;3.38;;;;;;;-144.57;100.00;62443.72;4749482;30;20474;-62
2023/03/22 04:36:09;;;;;;;2.78;2.58;;;;;;;-144.57;100.00;62443.72;4750709;30;20067;-60
2023/03/22 04:38:43;;;;;;;4.32;3.22;;;;;;;-144.57;100.00;62443.72;4764000;30;20121;-61
2023/03/22 04:41:15;;;;;;;2.85;2.55;;;;;;;-144.57;100.00;62443.72;4763473;30;20067;-61
2023/03/22 04:43:49;;;;;;;3.60;2.72;;;;;;;-144.57;100.00;62443.72;4763689;30;20068;-62
2023/03/22 04:46:16;;;;;;;3.30;3.00;;;;;;;-144.57;100.00;62443.72;4749432;30;20113;-63
2023/03/22 04:48:56;;;;;;;;;;;;;;;-144.57;100.00;62443.72;4762712;30;20060;-62
2023/03/22 04:51:22;;;;;;;2.80;2.38;;;;;;;-144.57;100.00;62443.72;4763908;30;19966;-63
2023/03/22 04:54:04;;;;;;;2.80;2.50;;;;;;;-144.57;100.00;62443.72;4764074;30;20068;-63
2023/03/22 04:56:30;;;;;;;1.85;1.73;;;;;;;-144.57;100.00;62443.72;4763363;30;20139;-63
2023/03/22 04:58:56;;;;;;;3.78;2.85;;;;;;;-144.57;100.00;62443.72;4738567;30;20160;-62
2023/03/22 05:01:21;;;;;;;5.28;3.40;;;;;;;-144.57;100.00;62443.72;4743190;30;20088;-63
2023/03/22 05:03:55;;;;;;;3.15;2.58;;;;;;;-144.57;100.00;62443.72;4763064;30;20511;-62
2023/03/22 05:06:22;;;;;;;3.63;2.58;;;;;;;-144.57;100.00;62443.72;4763820;30;20063;-61
2023/03/22 05:09:04;;;;;;;3.97;2.97;;;;;;;-144.57;100.00;62443.72;4746100;30;20809;-63
2023/03/22 05:11:30;;;;;;;3.97;2.53;;;;;;;-144.57;100.00;62443.72;4737012;30;20123;-64
2023/03/22 05:14:22;;;;;;;2.67;2.20;;;;;;;-144.57;100.00;62443.72;4748877;30;20067;-68
2023/03/22 05:16:48;;;;;;;3.55;2.67;;;;;;;-144.57;100.00;62443.72;4762835;30;20060;-66
2023/03/22 05:19:14;;;;;;;2.67;2.42;;;;;;;-144.57;100.00;62443.72;4762705;30;20562;-62
2023/03/22 05:21:44;;;;;;;3.70;2.40;;;;;;;-144.57;100.00;62443.72;4775161;30;20064;-63
2023/03/22 05:24:10;;;;;;;2.90;2.22;;;;;;;-144.57;100.00;62443.72;4773738;30;20084;-60
2023/03/22 05:26:41;;;;;;;4.80;3.60;;;;;;;-144.57;100.00;62443.72;4783264;30;20498;-62
2023/03/22 05:29:10;;;;;;;6.97;3.90;;;;;;;-144.57;100.00;62443.72;4749151;30;20143;-61
2023/03/22 05:32:09;;;;;;;3.45;3.00;;;;;;;-144.57;100.00;62443.72;4734806;30;20053;-63
2023/03/22 05:34:35;;;;;;;3.95;3.42;;;;;;;-144.57;100.00;62443.72;4719121;30;20065;-62
2023/03/22 05:37:12;;;;;;;3.50;2.60;;;;;;;-144.57;100.00;62443.72;4748553;30;20459;-60
2023/03/22 05:39:49;;;;;;;5.13;3.05;;;;;;;-144.57;100.00;62443.72;4765937;30;20064;-61
2023/03/22 05:42:15;;;;;;;3.78;2.25;;;;;;;-144.57;100.00;62443.72;4767015;30;20066;-62
2023/03/22 05:44:41;;;;;;;5.57;2.40;;;;;;;-144.57;100.00;62443.72;4767141;30;20144;-62
2023/03/22 05:47:11;;;;;;;4.88;2.20;;;;;;;-144.57;100.00;62443.72;4767107;30;20067;-61
2023/03/22 05:49:50;;;;;;;16.87;4.20;;;;;;;-144.57;100.00;62443.72;4767158;30;20067;-61
2023/03/22 05:52:17;;;;;;;5.47;2.53;;;;;;;-144.57;100.00;62443.72;4773258;30;20412;-63
2023/03/22 05:55:16;;;;;;;4.80;2.35;;;;;;;-144.57;100.00;62443.72;4783376;30;20060;-59
2023/03/22 05:57:43;;;;;;;3.53;2.72;;;;;;;-144.57;100.00;62443.72;4753071;30;20543;-62
2023/03/22 06:00:13;;;;;;;4.18;2.72;;;;;;;-144.57;100.00;62443.72;4782307;30;20063;-60
2023/03/22 06:02:48;;;;;;;2.33;2.13;;;;;;;-144.57;100.00;62443.72;4766004;30;20125;-61
2023/03/22 06:05:16;;;;;;;2.42;2.05;;;;;;;-144.57;100.00;62443.72;4763629;30;20542;-62
2023/03/22 06:07:42;;;;;;;3.95;2.47;;;;;;;-144.57;100.00;62443.72;4748734;30;20055;-61
2023/03/22 06:10:15;;;;;;;4.80;2.75;;;;;;;-144.57;100.00;62443.72;4773016;30;20055;-63
2023/03/22 06:12:41;;;;;;;3.30;2.30;;;;;;;-144.57;100.00;62443.72;4772411;30;20113;-61
2023/03/22 06:15:12;;;;;;;12.48;2.53;;;;;;;-144.57;100.00;62443.72;4772944;30;20139;-63
2023/03/22 06:17:52;;;;;;;7.25;3.22;;;;;;;-144.57;100.00;62443.72;4773142;30;20475;-63
2023/03/22 06:20:22;;;;;;;3.33;2.50;;;;;;;-144.57;100.00;62443.72;4773737;30;20063;-62
2023/03/22 06:22:56;;;;;;;2.22;1.95;;;;;;;-144.57;100.00;62443.72;4757355;30;20494;-62
2023/03/22 06:25:22;;;;;;;2.45;1.98;;;;;;;-144.57;100.00;62443.72;4759645;30;20503;-62
2023/03/22 06:27:48;;;;;;;7.78;2.33;;;;;;;-144.57;100.00;62443.72;4756131;30;20055;-61
2023/03/22 06:30:14;;;;;;;3.88;2.28;;;;;;;-144.57;100.00;62443.72;4774276;29;20062;-62
2023/03/22 06:33:15;;;;;;;6.28;2.40;;;;;;;-144.57;100.00;62443.72;4716771;30;20087;-62
2023/03/22 06:35:45;;;;;;;3.83;2.40;;;;;;;-144.57;100.00;62443.72;4750446;30;20118;-61
2023/03/22 06:38:17;;;;;;;3.22;2.30;;;;;;;-144.57;100.00;62443.72;4741351;30;20069;-62
2023/03/22 06:40:43;;;;;;;2.97;2.00;;;;;;;-144.57;100.00;62443.72;4747566;30;20060;-60
2023/03/22 06:43:09;;;;;;;2.65;1.80;;;;;;;-144.57;100.00;62443.72;4763277;30;20068;-62
2023/03/22 06:45:38;;;;;;;4.93;2.50;;;;;;;-144.57;100.00;62443.72;4765100;30;20063;-62
2023/03/22 06:48:05;;;;;;;7.55;2.30;;;;;;;-144.57;100.00;62443.72;4765653;30;20064;-62
2023/03/22 06:50:47;;;;;;;3.10;1.90;;;;;;;-144.57;100.00;62443.72;4764131;30;20071;-63
2023/03/22 06:53:24;;;;;;;2.88;2.10;;;;;;;-144.57;100.00;62443.72;4750658;30;20068;-62
2023/03/22 06:55:51;;;;;;;4.18;2.30;;;;;;;-144.57;100.00;62443.72;4750098;30;20067;-61
2023/03/22 06:58:19;;;;;;;3.30;2.53;;;;;;;-144.57;100.00;62443.72;4747977;30;20545;-62
2023/03/22 07:00:45;;;;;;;2.65;2.25;;;;;;;-144.57;100.00;62443.72;4749269;30;20147;-63
2023/03/22 07:03:12;;;;;;;2.15;1.90;;;;;;;-144.57;100.00;62443.72;4748978;30;20071;-62
2023/03/22 07:05:45;;;;;;;4.35;2.33;;;;;;;-144.57;100.00;62443.72;4749477;30;20076;-62
2023/03/22 07:08:10;;;;;;;2.63;2.10;;;;;;;-144.57;100.00;62443.72;4750797;30;20060;-61
2023/03/22 07:10:42;;;;;;;3.38;2.50;;;;;;;-144.57;100.00;62443.72;4749922;30;20066;-61
2023/03/22 07:13:08;;;;;;;2.50;2.30;;;;;;;-144.57;100.00;62443.72;4763627;30;20056;-62
2023/03/22 07:15:35;;;;;;;3.35;1.98;;;;;;;-144.57;100.00;62443.72;4763015;30;20681;-62
2023/03/22 07:18:10;;;;;;;3.55;2.20;;;;;;;-144.57;100.00;62443.72;4778999;30;20068;-62
2023/03/22 07:20:37;;;;;;;3.20;2.20;;;;;;;-144.57;100.00;62443.72;4764491;30;20088;-62
2023/03/22 07:23:03;;;;;;;3.92;2.42;;;;;;;-144.57;100.00;62443.72;4779056;30;20060;-62
2023/03/22 07:25:33;;;;;;;3.00;2.25;;;;;;;-144.57;100.00;62443.72;4763318;30;20059;-61
2023/03/22 07:28:13;;;;;;;2.45;1.77;;;;;;;-144.57;100.00;62443.72;4764840;30;20518;-62
2023/03/22 07:30:40;;;;;;;3.22;2.00;;;;;;;-144.57;100.00;62443.72;4755447;30;20054;-63
2023/03/22 07:33:08;;;;;;;2.90;2.25;;;;;;;-144.57;100.00;62443.72;4772651;30;20074;-62
2023/03/22 07:35:35;;;;;;;2.08;1.80;;;;;;;-144.57;100.00;62443.72;4771740;30;20055;-62
2023/03/22 07:38:03;;;;;;;2.90;2.15;;;;;;;-144.57;100.00;62443.72;4773383;30;20064;-61
2023/03/22 07:40:31;;;;;;;2.88;2.30;;;;;;;-144.57;100.00;62443.72;4773826;30;20055;-63
2023/03/22 07:43:00;;;;;;;2.50;2.10;;;;;;;-144.57;100.00;62443.72;4757467;30;20052;-62
2023/03/22 07:45:44;;;;;;;2.22;1.80;;;;;;;-144.57;100.00;62443.72;4734172;30;20064;-61
2023/03/22 07:48:30;;;;;;;2.30;1.92;;;;;;;-144.57;100.00;62443.72;4732146;30;20070;-61
2023/03/22 07:51:16;;;;;;;2.47;2.15;;;;;;;-144.57;100.00;62443.72;4723155;30;20067;-63
2023/03/22 07:53:42;;;;;;;2.03;1.73;;;;;;;-144.57;100.00;62443.72;4732375;30;20064;-62
2023/03/22 07:56:08;;;;;;;2.22;1.85;;;;;;;-144.57;100.00;62443.72;4730156;30;20063;-63
2023/03/22 07:58:34;;;;;;;2.75;2.00;;;;;;;-144.57;100.00;62443.72;4731109;30;20083;-63
2023/03/22 08:01:07;;;;;;;2.53;2.28;;;;;;;-144.57;100.00;62443.72;4762655;30;20067;-63
2023/03/22 08:03:51;;;;;;;;;;;;;;;-144.57;100.00;62443.72;4750388;30;20422;-62
2023/03/22 08:06:36;;;;;;;3.75;2.20;;;;;;;-144.57;100.00;62443.72;4748944;30;19949;-63
2023/03/22 08:09:03;;;;;;;4.55;2.20;;;;;;;-144.57;100.00;62443.72;4761338;30;20064;-63
2023/03/22 08:11:29;;;;;;;2.05;1.85;;;;;;;-144.57;100.00;62443.72;4748479;30;20138;-62
2023/03/22 08:13:57;;;;;;;2.00;1.80;;;;;;;-144.57;100.00;62443.72;4763042;30;20378;-62
2023/03/22 08:16:23;;;;;;;2.70;2.30;;;;;;;-144.57;100.00;62443.72;4764304;30;20064;-62
2023/03/22 08:18:48;;;;;;;3.22;2.65;;;;;;;-144.57;100.00;62443.72;4764032;30;20172;-62
2023/03/22 08:21:14;;;;;;;2.20;2.00;;;;;;;-144.57;100.00;62443.72;4763197;30;20118;-61
2023/03/22 08:23:40;;;;;;;2.38;1.90;;;;;;;-144.57;100.00;62443.72;4763658;30;20128;-62
2023/03/22 08:26:12;;;;;;;2.75;2.20;;;;;;;-144.57;100.00;62443.72;4750165;30;20113;-63
2023/03/22 08:28:37;;;;;;;2.10;1.80;;;;;;;-144.57;100.00;62443.72;4749101;30;20155;-62
2023/03/22 08:31:15;;;;;;;2.20;2.00;;;;;;;-144.57;100.00;62443.72;4762505;30;20137;-60
2023/03/22 08:33:43;;;;;;;2.63;2.22;;;;;;;-144.57;100.00;62443.72;4761179;30;20063;-61
2023/03/22 08:36:18;;;;;;;4.10;2.55;;;;;;;-144.57;100.00;62443.72;4762323;30;20086;-62
2023/03/22 08:38:50;;;;;;;2.40;1.98;;;;;;;-144.57;100.00;62443.72;4762863;30;20491;-62
2023/03/22 08:41:17;;;;;;;4.03;2.85;;;;;;;-144.57;100.00;62443.72;4761809;30;20059;-61
2023/03/22 08:43:43;;;;;;;3.58;2.60;;;;;;;-144.57;100.00;62443.72;4762218;30;20060;-62
2023/03/22 08:46:09;;;;;;;5.10;3.50;;;;;;;-144.57;100.00;62443.72;4745428;30;20060;-64
2023/03/22 08:48:36;;;;;;;4.20;2.78;;;;;;;-144.57;100.00;62443.72;4747991;30;20078;-62
2023/03/22 08:51:24;;;;;;;3.47;2.42;;;;;;;-144.57;100.00;62443.72;4762960;30;20059;-62
2023/03/22 08:54:02;;;;;;;3.70;2.60;;;;;;;-144.57;100.00;62443.72;4765985;30;20115;-63
2023/03/22 08:56:47;;;;;;;3.13;2.22;;;;;;;-144.57;100.00;62443.72;4754144;30;20060;-61
2023/03/22 08:59:31;;;;;;;3.20;2.47;;;;;;;-144.57;100.00;62443.72;4753449;30;20435;-62
2023/03/22 09:02:24;;;;;;;2.30;1.80;;;;;;;-144.57;100.00;62443.72;4765468;30;20154;-61
2023/03/22 09:04:51;;;;;;;5.40;3.20;;;;;;;-144.57;100.00;62443.72;4752730;30;20064;-62
2023/03/22 09:07:17;;;;;;;15.23;2.63;;;;;;;-144.57;100.00;62443.72;4752269;30;20060;-65
2023/03/22 09:09:49;;;;;;;4.50;2.70;;;;;;;-144.57;100.00;62443.72;4752406;30;20060;-61
2023/03/22 09:12:16;;;;;;;2.90;2.05;;;;;;;-144.57;100.00;62443.72;4767559;30;20095;-62
2023/03/22 09:14:42;;;;;;;3.35;2.10;;;;;;;-144.57;100.00;62443.72;4754157;30;20079;-61
2023/03/22 09:17:09;;;;;;;3.03;1.92;;;;;;;-144.57;100.00;62443.72;4767371;30;20064;-60
2023/03/22 09:19:35;;;;;;;2.10;1.90;;;;;;;-144.57;100.00;62443.72;4767271;30;20086;-63
2023/03/22 09:22:00;;;;;;;2.28;2.00;;;;;;;-144.57;100.00;62443.72;4767307;30;20527;-63
2023/03/22 09:24:37;;;;;;;4.03;3.03;;;;;;;-144.57;100.00;62443.72;4766729;30;20147;-61
2023/03/22 09:27:03;;;;;;;4.95;2.97;;;;;;;-144.57;100.00;62443.72;4766919;30;20177;-65
2023/03/22 09:29:29;;;;;;;3.70;2.58;;;;;;;-144.57;100.00;62443.72;4765677;30;20117;-62
2023/03/22 09:31:56;;;;;;;2.83;2.10;;;;;;;-144.57;100.00;62443.72;4780671;30;20068;-63
2023/03/22 09:34:26;;;;;;;2.53;2.25;;;;;;;-144.57;100.00;62443.72;4766520;30;20060;-61
2023/03/22 09:36:53;;;;;;;4.05;2.95;;;;;;;-144.57;100.00;62443.72;4752460;30;20064;-61
2023/03/22 09:39:23;;;;;;;3.20;2.00;;;;;;;-144.57;100.00;62443.72;4781496;30;20068;-62
2023/03/22 09:41:55;;;;;;;2.55;2.20;;;;;;;-144.57;100.00;62443.72;4771759;30;20059;-62
2023/03/22 09:44:39;;;;;;;3.20;1.80;;;;;;;-144.57;100.00;62443.72;4766521;30;20121;-59
2023/03/22 09:47:17;;;;;;;2.03;1.80;;;;;;;-144.57;100.00;62443.72;4748885;30;20130;-62
2023/03/22 09:49:47;;;;;;;2.17;1.95;;;;;;;-144.57;100.00;62443.72;4741597;30;20059;-61
2023/03/22 09:52:15;;;;;;;2.00;1.80;;;;;;;-144.57;100.00;62443.72;4766476;30;20130;-61
2023/03/22 09:54:43;;;;;;;1.80;1.70;;;;;;;-144.57;100.00;62443.72;4752413;30;20099;-62
2023/03/22 09:57:18;;;;;;;2.05;1.85;;;;;;;-144.57;100.00;62443.72;4752481;30;20523;-62
2023/03/22 10:00:10;;;;;;;3.15;1.55;;;;;;;-144.57;100.00;62443.72;4766262;30;20565;-62
2023/03/22 10:02:56;;;;;;;1.70;1.60;;;;;;;-144.57;100.00;62443.72;4752943;30;20114;-62
2023/03/22 10:06:00;;;;;;;1.67;1.58;;;;;;;-144.57;100.00;62443.72;4750233;30;20056;-61
2023/03/22 10:08:34;;;;;;;1.92;1.73;;;;;;;-144.57;100.00;62443.72;4750887;30;20587;-62
2023/03/22 10:11:00;;;;;;;1.95;1.77;;;;;;;-144.57;100.00;62443.72;4752065;30;20124;-62
2023/03/22 10:13:59;;;;;;;2.30;1.90;;;;;;;-144.57;100.00;62443.72;4766368;30;20056;-62
2023/03/22 10:16:27;;;;;;;3.78;1.77;;;;;;;-144.57;100.00;62443.72;4748375;30;20056;-63
2023/03/22 10:18:57;;;;;;;2.70;2.00;;;;;;;-144.57;100.00;62443.72;4733255;30;20514;-61
2023/03/22 10:21:23;;;;;;;2.03;1.80;;;;;;;-144.57;100.00;62443.72;4748115;30;20056;-61
2023/03/22 10:24:03;;;;;;;2.45;2.08;;;;;;;-144.57;100.00;62443.72;4733073;30;20075;-61
2023/03/22 10:26:35;;;;;;;2.33;2.00;;;;;;;-144.57;100.00;62443.72;4747705;30;20060;-61
2023/03/22 10:29:03;;;;;;;2.38;1.60;;;;;;;-144.57;100.00;62443.72;4734543;30;20072;-62
2023/03/22 10:31:30;;;;;;;1.75;1.63;;;;;;;-144.57;100.00;62443.72;4733078;30;20061;-62
2023/03/22 10:33:58;;;;;;;11.35;6.05;;;;;;;-144.57;100.00;62443.72;4751519;30;20124;-63
2023/03/22 10:36:30;;;;;;;2.50;1.90;;;;;;;-144.57;100.00;62443.72;4773080;30;20102;-62
2023/03/22 10:39:02;;;;;;;2.55;2.00;;;;;;;-144.57;100.00;62443.72;4754348;30;20090;-63
2023/03/22 10:41:29;;;;;;;2.28;1.80;;;;;;;-144.57;100.00;62443.72;4772051;30;20083;-64
2023/03/22 10:43:57;;;;;;;2.90;1.92;;;;;;;-144.57;100.00;62443.72;4758620;30;20458;-63
2023/03/22 10:46:30;;;;;;;1.63;1.40;;;;;;;-144.57;100.00;62443.72;4758770;30;20064;-62
2023/03/22 10:48:59;;;;;;;1.40;1.30;;;;;;;-144.57;100.00;62443.72;4769218;30;20059;-64
2023/03/22 10:51:56;;;;;;;2.67;1.45;;;;;;;-144.57;100.00;62443.72;4771722;30;20514;-63
2023/03/22 10:54:23;;;;;;;1.55;1.45;;;;;;;-144.57;100.00;62443.72;4759411;30;20058;-64
2023/03/22 10:56:49;;;;;;;2.50;1.42;;;;;;;-144.57;100.00;62443.72;4760228;30;20151;-62
2023/03/22 10:59:49;;;;;;;2.58;2.00;;;;;;;-144.57;100.00;62443.72;4758138;30;20068;-62
2023/03/22 11:02:16;;;;;;;1.75;1.60;;;;;;;-144.57;100.00;62443.72;4737616;30;20059;-61
2023/03/22 11:04:47;;;;;;;2.50;1.58;;;;;;;-144.57;100.00;62443.72;4760057;30;20114;-62
2023/03/22 11:07:34;;;;;;;2.03;1.83;;;;;;;-144.57;100.00;62443.72;4757419;30;20056;-62
2023/03/22 11:10:09;;;;;;;1.98;1.83;;;;;;;-144.57;100.00;62443.72;4751267;30;20495;-62
2023/03/22 11:12:37;;;;;;;3.28;2.10;;;;;;;-144.57;100.00;62443.72;4750082;30;20151;-62
2023/03/22 11:15:04;;;;;;;2.17;1.95;;;;;;;-144.57;100.00;62443.72;4761504;30;20093;-61
2023/03/22 11:17:30;;;;;;;4.97;1.95;;;;;;;-144.57;100.00;62443.72;4765415;30;20155;-63
2023/03/22 11:20:06;;;;;;;2.30;1.63;;;;;;;-144.57;100.00;62443.72;4750763;30;20074;-62
2023/03/22 11:22:39;;;;;;;3.40;1.50;;;;;;;-144.57;100.00;62443.72;4751024;30;20063;-61
2023/03/22 11:25:20;;;;;;;5.00;1.58;;;;;;;-144.57;100.00;62443.72;4749343;30;20064;-63
2023/03/22 11:27:57;;;;;;;4.95;1.65;;;;;;;-144.57;100.00;62443.72;4748860;30;20062;-63
2023/03/22 11:30:27;;;;;;;6.03;1.88;;;;;;;-144.57;100.00;62443.72;4765155;30;20476;-62